sensor_id;sensor_type;location;lat;lon;timestamp;temperature;humidity
52058;DHT22;38063;53.210;6.504;2023-04-16T00:00:43;8.00;99.90
52058;DHT22;38063;53.210;6.504;2023-04-16T00:03:09;8.50;99.90
52058;DHT22;38063;53.210;6.504;2023-04-16T00:05:35;8.00;99.90
52058;DHT22;38063;53.210;6.504;2023-04-16T00:08:01;8.20;99.90
52058;DHT22;38063;53.210;6.504;2023-04-16T00:10:26;8.00;99.90
52058;DHT22;38063;53.210;6.504;2023-04-16T00:12:52;8.00;99.90
52058;DHT22;38063;53.210;6.504;2023-04-16T00:15:17;8.00;99.90
52058;DHT22;38063;53.210;6.504;2023-04-16T00:17:43;8.00;99.90
52058;DHT22;38063;53.210;6.504;2023-04-16T00:20:09;8.00;99.90
52058;DHT22;38063;53.210;6.504;2023-04-16T00:22:35;8.00;99.90
52058;DHT22;38063;53.210;6.504;2023-04-16T00:25:01;8.40;99.90
52058;DHT22;38063;53.210;6.504;2023-04-16T00:27:27;8.80;99.90
52058;DHT22;38063;53.210;6.504;2023-04-16T00:29:52;8.10;99.90
52058;DHT22;38063;53.210;6.504;2023-04-16T00:32:18;8.10;99.90
52058;DHT22;38063;53.210;6.504;2023-04-16T00:34:44;8.00;99.90
52058;DHT22;38063;53.210;6.504;2023-04-16T00:37:10;8.00;99.90
52058;DHT22;38063;53.210;6.504;2023-04-16T00:39:35;8.30;99.90
52058;DHT22;38063;53.210;6.504;2023-04-16T00:42:01;8.00;99.90
52058;DHT22;38063;53.210;6.504;2023-04-16T00:44:27;8.00;99.90
52058;DHT22;38063;53.210;6.504;2023-04-16T00:46:55;8.00;99.90
52058;DHT22;38063;53.210;6.504;2023-04-16T00:49:22;8.40;99.90
52058;DHT22;38063;53.210;6.504;2023-04-16T00:51:48;8.00;99.90
52058;DHT22;38063;53.210;6.504;2023-04-16T00:54:13;7.90;99.90
52058;DHT22;38063;53.210;6.504;2023-04-16T00:56:39;7.90;99.90
52058;DHT22;38063;53.210;6.504;2023-04-16T00:59:05;7.90;99.90
52058;DHT22;38063;53.210;6.504;2023-04-16T01:01:30;7.80;99.90
52058;DHT22;38063;53.210;6.504;2023-04-16T01:03:56;8.70;99.90
52058;DHT22;38063;53.210;6.504;2023-04-16T01:06:21;7.80;99.90
52058;DHT22;38063;53.210;6.504;2023-04-16T01:08:47;7.80;99.90
52058;DHT22;38063;53.210;6.504;2023-04-16T01:11:14;7.80;99.90
52058;DHT22;38063;53.210;6.504;2023-04-16T01:13:40;7.80;99.90
52058;DHT22;38063;53.210;6.504;2023-04-16T01:16:07;7.80;99.90
52058;DHT22;38063;53.210;6.504;2023-04-16T01:18:32;7.80;99.90
52058;DHT22;38063;53.210;6.504;2023-04-16T01:20:58;7.80;99.90
52058;DHT22;38063;53.210;6.504;2023-04-16T01:23:24;8.10;99.90
52058;DHT22;38063;53.210;6.504;2023-04-16T01:25:49;7.80;99.90
52058;DHT22;38063;53.210;6.504;2023-04-16T01:28:15;7.80;99.90
52058;DHT22;38063;53.210;6.504;2023-04-16T01:30:41;7.90;99.90
52058;DHT22;38063;53.210;6.504;2023-04-16T01:33:09;7.80;99.90
52058;DHT22;38063;53.210;6.504;2023-04-16T01:35:35;7.80;99.90
52058;DHT22;38063;53.210;6.504;2023-04-16T01:38:02;8.00;99.90
52058;DHT22;38063;53.210;6.504;2023-04-16T01:40:28;7.80;99.90
52058;DHT22;38063;53.210;6.504;2023-04-16T01:42:53;7.80;99.90
52058;DHT22;38063;53.210;6.504;2023-04-16T01:45:19;7.90;99.90
52058;DHT22;38063;53.210;6.504;2023-04-16T01:47:45;7.90;99.90
52058;DHT22;38063;53.210;6.504;2023-04-16T01:50:11;7.80;99.90
52058;DHT22;38063;53.210;6.504;2023-04-16T01:52:37;7.90;99.90
52058;DHT22;38063;53.210;6.504;2023-04-16T01:55:02;7.90;99.90
52058;DHT22;38063;53.210;6.504;2023-04-16T01:57:28;7.90;99.90
52058;DHT22;38063;53.210;6.504;2023-04-16T01:59:54;7.90;99.90
52058;DHT22;38063;53.210;6.504;2023-04-16T02:02:19;7.80;99.90
52058;DHT22;38063;53.210;6.504;2023-04-16T02:04:48;7.80;99.90
52058;DHT22;38063;53.210;6.504;2023-04-16T02:07:13;8.00;99.90
52058;DHT22;38063;53.210;6.504;2023-04-16T02:09:39;7.80;99.90
52058;DHT22;38063;53.210;6.504;2023-04-16T02:12:06;7.80;99.90
52058;DHT22;38063;53.210;6.504;2023-04-16T02:14:32;7.80;99.90
52058;DHT22;38063;53.210;6.504;2023-04-16T02:16:58;7.80;99.90
52058;DHT22;38063;53.210;6.504;2023-04-16T02:19:25;7.80;99.90
52058;DHT22;38063;53.210;6.504;2023-04-16T02:21:51;7.80;99.90
52058;DHT22;38063;53.210;6.504;2023-04-16T02:24:17;7.80;99.90
52058;DHT22;38063;53.210;6.504;2023-04-16T02:26:43;7.80;99.90
52058;DHT22;38063;53.210;6.504;2023-04-16T02:29:09;7.80;99.90
52058;DHT22;38063;53.210;6.504;2023-04-16T02:31:35;8.40;99.90
52058;DHT22;38063;53.210;6.504;2023-04-16T02:34:02;7.80;99.90
52058;DHT22;38063;53.210;6.504;2023-04-16T02:36:28;8.00;99.90
52058;DHT22;38063;53.210;6.504;2023-04-16T02:38:53;7.80;99.90
52058;DHT22;38063;53.210;6.504;2023-04-16T02:41:19;7.80;99.90
52058;DHT22;38063;53.210;6.504;2023-04-16T02:43:45;7.80;99.90
52058;DHT22;38063;53.210;6.504;2023-04-16T02:46:10;7.80;99.90
52058;DHT22;38063;53.210;6.504;2023-04-16T02:48:36;7.80;99.90
52058;DHT22;38063;53.210;6.504;2023-04-16T02:51:02;7.80;99.90
52058;DHT22;38063;53.210;6.504;2023-04-16T02:53:27;7.80;99.90
52058;DHT22;38063;53.210;6.504;2023-04-16T02:55:54;7.80;99.90
52058;DHT22;38063;53.210;6.504;2023-04-16T02:58:20;7.80;99.90
52058;DHT22;38063;53.210;6.504;2023-04-16T03:00:47;7.80;99.90
52058;DHT22;38063;53.210;6.504;2023-04-16T03:03:13;7.80;99.90
52058;DHT22;38063;53.210;6.504;2023-04-16T03:05:39;7.70;99.90
52058;DHT22;38063;53.210;6.504;2023-04-16T03:08:05;7.70;99.90
52058;DHT22;38063;53.210;6.504;2023-04-16T03:10:31;7.70;99.90
52058;DHT22;38063;53.210;6.504;2023-04-16T03:12:57;7.70;99.90
52058;DHT22;38063;53.210;6.504;2023-04-16T03:15:23;7.70;99.90
52058;DHT22;38063;53.210;6.504;2023-04-16T03:17:49;8.20;99.90
52058;DHT22;38063;53.210;6.504;2023-04-16T03:20:15;7.60;99.90
52058;DHT22;38063;53.210;6.504;2023-04-16T03:22:47;7.60;99.90
52058;DHT22;38063;53.210;6.504;2023-04-16T03:25:13;7.60;99.90
52058;DHT22;38063;53.210;6.504;2023-04-16T03:27:39;7.60;99.90
52058;DHT22;38063;53.210;6.504;2023-04-16T03:30:06;7.60;99.90
52058;DHT22;38063;53.210;6.504;2023-04-16T03:32:32;7.60;99.90
52058;DHT22;38063;53.210;6.504;2023-04-16T03:34:58;7.60;99.90
52058;DHT22;38063;53.210;6.504;2023-04-16T03:37:23;8.20;99.90
52058;DHT22;38063;53.210;6.504;2023-04-16T03:39:49;7.90;99.90
52058;DHT22;38063;53.210;6.504;2023-04-16T03:42:15;7.60;99.90
52058;DHT22;38063;53.210;6.504;2023-04-16T03:44:40;7.60;99.90
52058;DHT22;38063;53.210;6.504;2023-04-16T03:47:06;7.60;99.90
52058;DHT22;38063;53.210;6.504;2023-04-16T03:49:32;7.60;99.90
52058;DHT22;38063;53.210;6.504;2023-04-16T03:51:57;7.60;99.90
52058;DHT22;38063;53.210;6.504;2023-04-16T03:54:23;7.50;99.90
52058;DHT22;38063;53.210;6.504;2023-04-16T03:56:49;7.90;99.90
52058;DHT22;38063;53.210;6.504;2023-04-16T03:59:14;7.50;99.90
52058;DHT22;38063;53.210;6.504;2023-04-16T04:01:40;7.50;99.90
52058;DHT22;38063;53.210;6.504;2023-04-16T04:04:06;7.50;99.90
52058;DHT22;38063;53.210;6.504;2023-04-16T04:06:32;7.50;99.90
52058;DHT22;38063;53.210;6.504;2023-04-16T04:08:58;7.50;99.90
52058;DHT22;38063;53.210;6.504;2023-04-16T04:11:23;7.50;99.90
52058;DHT22;38063;53.210;6.504;2023-04-16T04:13:49;7.40;99.90
52058;DHT22;38063;53.210;6.504;2023-04-16T04:16:15;7.40;99.90
52058;DHT22;38063;53.210;6.504;2023-04-16T04:18:40;7.40;99.90
52058;DHT22;38063;53.210;6.504;2023-04-16T04:21:07;7.40;99.90
52058;DHT22;38063;53.210;6.504;2023-04-16T04:23:34;7.40;99.90
52058;DHT22;38063;53.210;6.504;2023-04-16T04:26:00;7.40;99.90
52058;DHT22;38063;53.210;6.504;2023-04-16T04:28:28;8.20;99.90
52058;DHT22;38063;53.210;6.504;2023-04-16T04:30:56;7.40;99.90
52058;DHT22;38063;53.210;6.504;2023-04-16T04:33:21;7.40;99.90
52058;DHT22;38063;53.210;6.504;2023-04-16T04:35:47;7.40;99.90
52058;DHT22;38063;53.210;6.504;2023-04-16T04:38:13;7.40;99.90
52058;DHT22;38063;53.210;6.504;2023-04-16T04:40:38;7.40;99.90
52058;DHT22;38063;53.210;6.504;2023-04-16T04:43:04;7.40;99.90
52058;DHT22;38063;53.210;6.504;2023-04-16T04:45:29;7.60;99.90
52058;DHT22;38063;53.210;6.504;2023-04-16T04:47:55;7.30;99.90
52058;DHT22;38063;53.210;6.504;2023-04-16T04:50:21;7.30;99.90
52058;DHT22;38063;53.210;6.504;2023-04-16T04:52:47;7.40;99.90
52058;DHT22;38063;53.210;6.504;2023-04-16T04:55:12;7.70;99.90
52058;DHT22;38063;53.210;6.504;2023-04-16T04:57:40;7.30;99.90
52058;DHT22;38063;53.210;6.504;2023-04-16T05:00:07;7.40;99.90
52058;DHT22;38063;53.210;6.504;2023-04-16T05:02:33;7.40;99.90
52058;DHT22;38063;53.210;6.504;2023-04-16T05:04:59;7.40;99.90
52058;DHT22;38063;53.210;6.504;2023-04-16T05:07:24;7.40;99.90
52058;DHT22;38063;53.210;6.504;2023-04-16T05:09:53;7.30;99.90
52058;DHT22;38063;53.210;6.504;2023-04-16T05:12:19;7.30;99.90
52058;DHT22;38063;53.210;6.504;2023-04-16T05:14:44;7.30;99.90
52058;DHT22;38063;53.210;6.504;2023-04-16T05:17:10;7.30;99.90
52058;DHT22;38063;53.210;6.504;2023-04-16T05:19:36;7.30;99.90
52058;DHT22;38063;53.210;6.504;2023-04-16T05:22:01;7.40;99.90
52058;DHT22;38063;53.210;6.504;2023-04-16T05:24:27;7.40;99.90
52058;DHT22;38063;53.210;6.504;2023-04-16T05:26:53;7.40;99.90
52058;DHT22;38063;53.210;6.504;2023-04-16T05:29:19;7.40;99.90
52058;DHT22;38063;53.210;6.504;2023-04-16T05:31:45;7.40;99.90
52058;DHT22;38063;53.210;6.504;2023-04-16T05:34:11;7.80;99.90
52058;DHT22;38063;53.210;6.504;2023-04-16T05:36:36;7.40;99.90
52058;DHT22;38063;53.210;6.504;2023-04-16T05:39:02;7.50;99.90
52058;DHT22;38063;53.210;6.504;2023-04-16T05:41:28;7.40;99.90
52058;DHT22;38063;53.210;6.504;2023-04-16T05:43:53;7.50;99.90
52058;DHT22;38063;53.210;6.504;2023-04-16T05:46:19;7.50;99.90
52058;DHT22;38063;53.210;6.504;2023-04-16T05:48:45;7.50;99.90
52058;DHT22;38063;53.210;6.504;2023-04-16T05:51:10;7.90;99.90
52058;DHT22;38063;53.210;6.504;2023-04-16T05:53:36;7.60;99.90
52058;DHT22;38063;53.210;6.504;2023-04-16T05:56:02;7.90;99.90
52058;DHT22;38063;53.210;6.504;2023-04-16T05:58:27;7.70;99.90
52058;DHT22;38063;53.210;6.504;2023-04-16T06:00:53;7.70;99.90
52058;DHT22;38063;53.210;6.504;2023-04-16T06:03:19;7.80;99.90
52058;DHT22;38063;53.210;6.504;2023-04-16T06:05:44;7.80;99.90
52058;DHT22;38063;53.210;6.504;2023-04-16T06:08:10;7.80;99.90
52058;DHT22;38063;53.210;6.504;2023-04-16T06:10:36;7.90;99.90
52058;DHT22;38063;53.210;6.504;2023-04-16T06:13:01;7.90;99.90
52058;DHT22;38063;53.210;6.504;2023-04-16T06:15:27;8.00;99.90
52058;DHT22;38063;53.210;6.504;2023-04-16T06:17:54;8.00;99.90
52058;DHT22;38063;53.210;6.504;2023-04-16T06:20:20;8.00;99.90
52058;DHT22;38063;53.210;6.504;2023-04-16T06:22:46;8.00;99.90
52058;DHT22;38063;53.210;6.504;2023-04-16T06:25:12;8.00;99.90
52058;DHT22;38063;53.210;6.504;2023-04-16T06:27:37;8.10;99.90
52058;DHT22;38063;53.210;6.504;2023-04-16T06:30:03;8.10;99.90
52058;DHT22;38063;53.210;6.504;2023-04-16T06:32:29;8.20;99.90
52058;DHT22;38063;53.210;6.504;2023-04-16T06:34:55;8.30;99.90
52058;DHT22;38063;53.210;6.504;2023-04-16T06:37:23;8.40;99.90
52058;DHT22;38063;53.210;6.504;2023-04-16T06:39:48;8.40;99.90
52058;DHT22;38063;53.210;6.504;2023-04-16T06:42:14;9.10;99.90
52058;DHT22;38063;53.210;6.504;2023-04-16T06:44:40;8.40;99.90
52058;DHT22;38063;53.210;6.504;2023-04-16T06:47:07;8.50;99.90
52058;DHT22;38063;53.210;6.504;2023-04-16T06:49:32;8.50;99.90
52058;DHT22;38063;53.210;6.504;2023-04-16T06:51:58;8.50;99.90
52058;DHT22;38063;53.210;6.504;2023-04-16T06:54:24;8.80;99.90
52058;DHT22;38063;53.210;6.504;2023-04-16T06:56:49;8.50;99.90
52058;DHT22;38063;53.210;6.504;2023-04-16T06:59:15;8.50;99.90
52058;DHT22;38063;53.210;6.504;2023-04-16T07:01:41;8.50;99.90
52058;DHT22;38063;53.210;6.504;2023-04-16T07:04:07;8.50;99.90
52058;DHT22;38063;53.210;6.504;2023-04-16T07:06:32;8.50;99.90
52058;DHT22;38063;53.210;6.504;2023-04-16T07:08:58;8.50;99.90
52058;DHT22;38063;53.210;6.504;2023-04-16T07:11:24;8.50;99.90
52058;DHT22;38063;53.210;6.504;2023-04-16T07:13:50;8.50;99.90
52058;DHT22;38063;53.210;6.504;2023-04-16T07:16:18;8.90;99.90
52058;DHT22;38063;53.210;6.504;2023-04-16T07:18:43;8.40;99.90
52058;DHT22;38063;53.210;6.504;2023-04-16T07:21:09;8.40;99.90
52058;DHT22;38063;53.210;6.504;2023-04-16T07:23:35;8.60;99.90
52058;DHT22;38063;53.210;6.504;2023-04-16T07:26:00;8.60;99.90
52058;DHT22;38063;53.210;6.504;2023-04-16T07:28:26;8.60;99.90
52058;DHT22;38063;53.210;6.504;2023-04-16T07:30:52;8.60;99.90
52058;DHT22;38063;53.210;6.504;2023-04-16T07:33:17;8.70;99.90
52058;DHT22;38063;53.210;6.504;2023-04-16T07:35:43;8.70;99.90
52058;DHT22;38063;53.210;6.504;2023-04-16T07:38:09;8.70;99.90
52058;DHT22;38063;53.210;6.504;2023-04-16T07:40:35;9.50;99.90
52058;DHT22;38063;53.210;6.504;2023-04-16T07:43:01;9.80;99.90
52058;DHT22;38063;53.210;6.504;2023-04-16T07:45:27;8.80;99.90
52058;DHT22;38063;53.210;6.504;2023-04-16T07:47:53;8.80;99.90
52058;DHT22;38063;53.210;6.504;2023-04-16T07:50:19;8.80;99.90
52058;DHT22;38063;53.210;6.504;2023-04-16T07:52:45;8.90;99.90
52058;DHT22;38063;53.210;6.504;2023-04-16T07:55:11;9.00;99.90
52058;DHT22;38063;53.210;6.504;2023-04-16T07:57:37;9.00;99.90
52058;DHT22;38063;53.210;6.504;2023-04-16T08:00:03;9.00;99.90
52058;DHT22;38063;53.210;6.504;2023-04-16T08:02:29;9.00;99.90
52058;DHT22;38063;53.210;6.504;2023-04-16T08:04:55;9.10;99.90
52058;DHT22;38063;53.210;6.504;2023-04-16T08:07:21;9.10;99.90
52058;DHT22;38063;53.210;6.504;2023-04-16T08:09:48;9.10;99.90
52058;DHT22;38063;53.210;6.504;2023-04-16T08:12:14;9.10;99.90
52058;DHT22;38063;53.210;6.504;2023-04-16T08:14:41;9.10;99.90
52058;DHT22;38063;53.210;6.504;2023-04-16T08:17:07;9.30;99.90
52058;DHT22;38063;53.210;6.504;2023-04-16T08:19:33;9.20;99.90
52058;DHT22;38063;53.210;6.504;2023-04-16T08:21:59;9.40;99.90
52058;DHT22;38063;53.210;6.504;2023-04-16T08:24:25;9.40;99.90
52058;DHT22;38063;53.210;6.504;2023-04-16T08:26:50;9.50;99.90
52058;DHT22;38063;53.210;6.504;2023-04-16T08:29:16;9.50;99.90
52058;DHT22;38063;53.210;6.504;2023-04-16T08:31:42;9.60;99.90
52058;DHT22;38063;53.210;6.504;2023-04-16T08:34:08;9.80;99.90
52058;DHT22;38063;53.210;6.504;2023-04-16T08:36:36;9.80;99.90
52058;DHT22;38063;53.210;6.504;2023-04-16T08:39:02;9.90;99.90
52058;DHT22;38063;53.210;6.504;2023-04-16T08:41:31;10.00;99.90
52058;DHT22;38063;53.210;6.504;2023-04-16T08:44:07;10.10;99.90
52058;DHT22;38063;53.210;6.504;2023-04-16T08:46:35;10.10;99.90
52058;DHT22;38063;53.210;6.504;2023-04-16T08:49:04;10.20;99.90
52058;DHT22;38063;53.210;6.504;2023-04-16T08:51:33;10.50;99.90
52058;DHT22;38063;53.210;6.504;2023-04-16T08:54:03;10.50;99.90
52058;DHT22;38063;53.210;6.504;2023-04-16T08:56:30;10.50;99.90
52058;DHT22;38063;53.210;6.504;2023-04-16T08:59:00;10.60;99.90
52058;DHT22;38063;53.210;6.504;2023-04-16T09:01:31;10.60;99.90
52058;DHT22;38063;53.210;6.504;2023-04-16T09:03:58;10.70;99.90
52058;DHT22;38063;53.210;6.504;2023-04-16T09:06:26;10.80;99.90
52058;DHT22;38063;53.210;6.504;2023-04-16T09:08:59;10.90;99.90
52058;DHT22;38063;53.210;6.504;2023-04-16T09:11:29;10.80;99.90
52058;DHT22;38063;53.210;6.504;2023-04-16T09:13:55;10.80;99.90
52058;DHT22;38063;53.210;6.504;2023-04-16T09:16:22;11.00;99.90
52058;DHT22;38063;53.210;6.504;2023-04-16T09:18:50;11.00;99.90
52058;DHT22;38063;53.210;6.504;2023-04-16T09:21:16;11.20;99.90
52058;DHT22;38063;53.210;6.504;2023-04-16T09:23:42;11.20;99.90
52058;DHT22;38063;53.210;6.504;2023-04-16T09:26:08;11.20;99.90
52058;DHT22;38063;53.210;6.504;2023-04-16T09:28:45;11.30;99.90
52058;DHT22;38063;53.210;6.504;2023-04-16T09:31:18;11.30;99.90
52058;DHT22;38063;53.210;6.504;2023-04-16T09:36:25;11.40;99.90
52058;DHT22;38063;53.210;6.504;2023-04-16T09:38:53;11.50;99.90
52058;DHT22;38063;53.210;6.504;2023-04-16T09:41:19;11.50;99.90
52058;DHT22;38063;53.210;6.504;2023-04-16T09:44:00;11.70;99.90
52058;DHT22;38063;53.210;6.504;2023-04-16T09:46:39;11.70;99.90
52058;DHT22;38063;53.210;6.504;2023-04-16T09:49:16;11.60;99.90
52058;DHT22;38063;53.210;6.504;2023-04-16T09:51:47;11.60;99.90
52058;DHT22;38063;53.210;6.504;2023-04-16T09:54:14;11.60;99.90
52058;DHT22;38063;53.210;6.504;2023-04-16T09:56:45;11.70;99.90
52058;DHT22;38063;53.210;6.504;2023-04-16T09:59:21;11.70;99.90
52058;DHT22;38063;53.210;6.504;2023-04-16T10:01:47;11.80;99.90
52058;DHT22;38063;53.210;6.504;2023-04-16T10:04:14;11.90;99.90
52058;DHT22;38063;53.210;6.504;2023-04-16T10:06:40;12.10;99.90
52058;DHT22;38063;53.210;6.504;2023-04-16T10:09:07;12.00;99.90
52058;DHT22;38063;53.210;6.504;2023-04-16T10:11:36;12.00;99.90
52058;DHT22;38063;53.210;6.504;2023-04-16T10:14:02;12.00;99.90
52058;DHT22;38063;53.210;6.504;2023-04-16T10:16:29;12.00;99.90
52058;DHT22;38063;53.210;6.504;2023-04-16T10:18:55;12.10;99.90
52058;DHT22;38063;53.210;6.504;2023-04-16T10:21:21;12.10;99.90
52058;DHT22;38063;53.210;6.504;2023-04-16T10:23:47;12.20;99.90
52058;DHT22;38063;53.210;6.504;2023-04-16T10:26:14;12.30;99.90
52058;DHT22;38063;53.210;6.504;2023-04-16T10:28:44;12.30;99.90
52058;DHT22;38063;53.210;6.504;2023-04-16T10:31:10;12.30;99.90
52058;DHT22;38063;53.210;6.504;2023-04-16T10:33:39;12.30;99.90
52058;DHT22;38063;53.210;6.504;2023-04-16T10:38:40;12.40;99.90
52058;DHT22;38063;53.210;6.504;2023-04-16T10:41:09;12.40;99.90
52058;DHT22;38063;53.210;6.504;2023-04-16T10:43:46;12.50;99.90
52058;DHT22;38063;53.210;6.504;2023-04-16T10:46:32;12.40;99.90
52058;DHT22;38063;53.210;6.504;2023-04-16T10:49:11;12.50;99.90
52058;DHT22;38063;53.210;6.504;2023-04-16T10:51:37;12.40;99.90
52058;DHT22;38063;53.210;6.504;2023-04-16T10:54:25;12.30;99.90
52058;DHT22;38063;53.210;6.504;2023-04-16T10:56:51;12.30;99.90
52058;DHT22;38063;53.210;6.504;2023-04-16T10:59:19;12.20;99.90
52058;DHT22;38063;53.210;6.504;2023-04-16T11:01:47;12.10;99.90
52058;DHT22;38063;53.210;6.504;2023-04-16T11:07:14;11.90;99.90
52058;DHT22;38063;53.210;6.504;2023-04-16T11:09:56;11.80;99.90
52058;DHT22;38063;53.210;6.504;2023-04-16T11:12:41;11.80;99.90
52058;DHT22;38063;53.210;6.504;2023-04-16T11:15:13;11.60;99.90
52058;DHT22;38063;53.210;6.504;2023-04-16T11:17:44;11.60;99.90
52058;DHT22;38063;53.210;6.504;2023-04-16T11:20:24;11.60;99.90
52058;DHT22;38063;53.210;6.504;2023-04-16T11:22:52;11.70;99.90
52058;DHT22;38063;53.210;6.504;2023-04-16T11:25:24;11.70;99.90
52058;DHT22;38063;53.210;6.504;2023-04-16T11:27:51;11.80;99.90
52058;DHT22;38063;53.210;6.504;2023-04-16T11:30:18;11.90;99.90
52058;DHT22;38063;53.210;6.504;2023-04-16T11:32:52;12.00;99.90
52058;DHT22;38063;53.210;6.504;2023-04-16T11:35:18;12.00;99.90
52058;DHT22;38063;53.210;6.504;2023-04-16T11:37:45;12.10;99.90
52058;DHT22;38063;53.210;6.504;2023-04-16T11:40:12;12.20;99.90
52058;DHT22;38063;53.210;6.504;2023-04-16T11:42:40;12.30;99.90
52058;DHT22;38063;53.210;6.504;2023-04-16T11:45:07;12.30;99.90
52058;DHT22;38063;53.210;6.504;2023-04-16T11:50:22;12.50;99.90
52058;DHT22;38063;53.210;6.504;2023-04-16T11:52:50;12.60;99.90
52058;DHT22;38063;53.210;6.504;2023-04-16T11:55:17;12.70;99.90
52058;DHT22;38063;53.210;6.504;2023-04-16T11:57:42;12.80;99.90
52058;DHT22;38063;53.210;6.504;2023-04-16T12:00:08;12.70;99.90
52058;DHT22;38063;53.210;6.504;2023-04-16T12:02:44;12.70;99.90
52058;DHT22;38063;53.210;6.504;2023-04-16T12:05:33;12.70;99.90
52058;DHT22;38063;53.210;6.504;2023-04-16T12:08:02;12.80;99.90
52058;DHT22;38063;53.210;6.504;2023-04-16T12:10:30;12.80;99.90
52058;DHT22;38063;53.210;6.504;2023-04-16T12:13:13;12.80;99.90
52058;DHT22;38063;53.210;6.504;2023-04-16T12:15:52;12.80;99.90
52058;DHT22;38063;53.210;6.504;2023-04-16T12:18:19;12.90;99.90
52058;DHT22;38063;53.210;6.504;2023-04-16T12:20:47;12.90;99.90
52058;DHT22;38063;53.210;6.504;2023-04-16T12:23:24;12.90;99.90
52058;DHT22;38063;53.210;6.504;2023-04-16T12:25:49;12.90;99.90
52058;DHT22;38063;53.210;6.504;2023-04-16T12:28:33;12.90;99.90
52058;DHT22;38063;53.210;6.504;2023-04-16T12:31:00;13.00;99.90
52058;DHT22;38063;53.210;6.504;2023-04-16T12:33:26;13.10;99.90
52058;DHT22;38063;53.210;6.504;2023-04-16T12:35:51;13.10;99.90
52058;DHT22;38063;53.210;6.504;2023-04-16T12:38:17;13.00;99.90
52058;DHT22;38063;53.210;6.504;2023-04-16T12:40:44;13.00;99.90
52058;DHT22;38063;53.210;6.504;2023-04-16T12:43:09;13.00;99.90
52058;DHT22;38063;53.210;6.504;2023-04-16T12:45:36;13.00;99.90
52058;DHT22;38063;53.210;6.504;2023-04-16T12:48:02;13.00;99.90
52058;DHT22;38063;53.210;6.504;2023-04-16T12:50:28;12.90;99.90
52058;DHT22;38063;53.210;6.504;2023-04-16T12:52:57;12.80;99.90
52058;DHT22;38063;53.210;6.504;2023-04-16T12:55:23;12.90;99.90
52058;DHT22;38063;53.210;6.504;2023-04-16T12:57:50;12.90;99.90
52058;DHT22;38063;53.210;6.504;2023-04-16T13:00:18;13.00;99.90
52058;DHT22;38063;53.210;6.504;2023-04-16T13:02:44;13.10;99.90
52058;DHT22;38063;53.210;6.504;2023-04-16T13:05:10;13.20;99.90
52058;DHT22;38063;53.210;6.504;2023-04-16T13:07:36;13.50;99.90
52058;DHT22;38063;53.210;6.504;2023-04-16T13:10:01;13.50;99.90
52058;DHT22;38063;53.210;6.504;2023-04-16T13:12:27;13.50;99.90
52058;DHT22;38063;53.210;6.504;2023-04-16T13:14:54;13.60;99.90
52058;DHT22;38063;53.210;6.504;2023-04-16T13:17:20;13.70;99.90
52058;DHT22;38063;53.210;6.504;2023-04-16T13:19:45;13.60;99.90
52058;DHT22;38063;53.210;6.504;2023-04-16T13:22:11;13.60;99.90
52058;DHT22;38063;53.210;6.504;2023-04-16T13:24:37;13.60;99.90
52058;DHT22;38063;53.210;6.504;2023-04-16T13:27:03;13.50;99.90
52058;DHT22;38063;53.210;6.504;2023-04-16T13:29:29;13.50;99.90
52058;DHT22;38063;53.210;6.504;2023-04-16T13:31:55;13.40;99.90
52058;DHT22;38063;53.210;6.504;2023-04-16T13:34:21;13.40;99.90
52058;DHT22;38063;53.210;6.504;2023-04-16T13:36:47;13.40;99.90
52058;DHT22;38063;53.210;6.504;2023-04-16T13:39:13;13.40;99.90
52058;DHT22;38063;53.210;6.504;2023-04-16T13:41:40;13.50;99.90
52058;DHT22;38063;53.210;6.504;2023-04-16T13:44:06;13.50;99.90
52058;DHT22;38063;53.210;6.504;2023-04-16T13:46:32;13.50;99.90
52058;DHT22;38063;53.210;6.504;2023-04-16T13:48:58;13.40;99.90
52058;DHT22;38063;53.210;6.504;2023-04-16T13:51:23;13.40;99.90
52058;DHT22;38063;53.210;6.504;2023-04-16T13:53:49;13.50;99.90
52058;DHT22;38063;53.210;6.504;2023-04-16T13:56:15;13.50;99.90
52058;DHT22;38063;53.210;6.504;2023-04-16T13:58:41;13.50;99.90
52058;DHT22;38063;53.210;6.504;2023-04-16T14:01:08;13.60;99.90
52058;DHT22;38063;53.210;6.504;2023-04-16T14:03:33;13.60;99.90
52058;DHT22;38063;53.210;6.504;2023-04-16T14:06:02;13.60;99.90
52058;DHT22;38063;53.210;6.504;2023-04-16T14:08:27;13.70;99.90
52058;DHT22;38063;53.210;6.504;2023-04-16T14:10:53;13.70;99.90
52058;DHT22;38063;53.210;6.504;2023-04-16T14:13:19;13.70;99.90
52058;DHT22;38063;53.210;6.504;2023-04-16T14:15:45;13.60;99.90
52058;DHT22;38063;53.210;6.504;2023-04-16T14:18:11;13.50;99.90
52058;DHT22;38063;53.210;6.504;2023-04-16T14:20:37;13.60;99.90
52058;DHT22;38063;53.210;6.504;2023-04-16T14:23:04;13.50;99.90
52058;DHT22;38063;53.210;6.504;2023-04-16T14:25:30;13.60;99.90
52058;DHT22;38063;53.210;6.504;2023-04-16T14:27:57;13.60;99.90
52058;DHT22;38063;53.210;6.504;2023-04-16T14:30:23;13.60;99.90
52058;DHT22;38063;53.210;6.504;2023-04-16T14:32:48;13.70;99.90
52058;DHT22;38063;53.210;6.504;2023-04-16T14:35:14;13.70;99.90
52058;DHT22;38063;53.210;6.504;2023-04-16T14:37:40;13.90;99.90
52058;DHT22;38063;53.210;6.504;2023-04-16T14:40:06;14.00;99.90
52058;DHT22;38063;53.210;6.504;2023-04-16T14:42:33;13.90;99.90
52058;DHT22;38063;53.210;6.504;2023-04-16T14:45:01;13.70;99.90
52058;DHT22;38063;53.210;6.504;2023-04-16T14:47:27;13.60;99.90
52058;DHT22;38063;53.210;6.504;2023-04-16T14:49:53;13.60;99.90
52058;DHT22;38063;53.210;6.504;2023-04-16T14:52:18;13.50;99.90
52058;DHT22;38063;53.210;6.504;2023-04-16T14:54:44;13.50;99.90
52058;DHT22;38063;53.210;6.504;2023-04-16T14:57:10;13.40;99.90
52058;DHT22;38063;53.210;6.504;2023-04-16T14:59:35;13.50;99.90
52058;DHT22;38063;53.210;6.504;2023-04-16T15:02:01;13.50;99.90
52058;DHT22;38063;53.210;6.504;2023-04-16T15:04:27;13.50;99.90
52058;DHT22;38063;53.210;6.504;2023-04-16T15:06:53;13.40;99.90
52058;DHT22;38063;53.210;6.504;2023-04-16T15:09:24;13.40;99.90
52058;DHT22;38063;53.210;6.504;2023-04-16T15:11:50;13.20;99.90
52058;DHT22;38063;53.210;6.504;2023-04-16T15:14:16;13.20;99.90
52058;DHT22;38063;53.210;6.504;2023-04-16T15:16:42;13.20;99.90
52058;DHT22;38063;53.210;6.504;2023-04-16T15:19:08;13.10;99.90
52058;DHT22;38063;53.210;6.504;2023-04-16T15:21:33;13.00;99.90
52058;DHT22;38063;53.210;6.504;2023-04-16T15:23:59;12.90;99.90
52058;DHT22;38063;53.210;6.504;2023-04-16T15:26:25;12.90;99.90
52058;DHT22;38063;53.210;6.504;2023-04-16T15:28:50;12.70;99.90
52058;DHT22;38063;53.210;6.504;2023-04-16T15:31:16;12.60;99.90
52058;DHT22;38063;53.210;6.504;2023-04-16T15:33:42;12.30;99.90
52058;DHT22;38063;53.210;6.504;2023-04-16T15:36:07;12.10;99.90
52058;DHT22;38063;53.210;6.504;2023-04-16T15:38:33;11.90;99.90
52058;DHT22;38063;53.210;6.504;2023-04-16T15:40:59;11.80;99.90
52058;DHT22;38063;53.210;6.504;2023-04-16T15:43:28;11.70;99.90
52058;DHT22;38063;53.210;6.504;2023-04-16T15:45:56;11.60;99.90
52058;DHT22;38063;53.210;6.504;2023-04-16T15:48:22;11.50;99.90